Time;durP1;ratioP1;P1;durP2;ratioP2;P2;SDS_P1;SDS_P2;PMS_P1;PMS_P2;Temp;Humidity;BMP_temperature;BMP_pressure;BME280_temperature;BME280_humidity;BME280_pressure;Samples;Min_cycle;Max_cycle;Signal;HPM_P1;HPM_P2
2021/09/21 00:01:23;;;;;;;8.40;5.68;;;10.00;92.10;;;;;;5036381;28;20317;-64
2021/09/21 00:03:50;;;;;;;12.60;6.78;;;10.10;92.20;;;;;;5048689;28;20232;-64
2021/09/21 00:06:18;;;;;;;9.85;5.80;;;10.20;92.10;;;;;;5051561;28;20321;-64
2021/09/21 00:08:45;;;;;;;9.40;5.50;;;10.20;92.20;;;;;;5035370;28;20657;-64
2021/09/21 00:11:12;;;;;;;9.80;6.60;;;10.20;92.00;;;;;;5031605;28;20273;-64
2021/09/21 00:13:40;;;;;;;8.02;5.65;;;10.20;91.90;;;;;;5046195;28;20226;-63
2021/09/21 00:16:08;;;;;;;10.10;6.25;;;10.20;91.50;;;;;;5048028;28;20640;-64
2021/09/21 00:18:38;;;;;;;7.38;5.60;;;10.30;91.90;;;;;;5031515;28;20274;-63
2021/09/21 00:21:05;;;;;;;11.40;6.55;;;10.30;91.50;;;;;;5036961;28;20688;-64
2021/09/21 00:23:33;;;;;;;8.13;5.43;;;10.20;91.30;;;;;;5051486;28;20751;-64
2021/09/21 00:26:00;;;;;;;10.48;7.05;;;10.20;91.40;;;;;;5045670;28;20271;-65
2021/09/21 00:28:27;;;;;;;11.45;6.00;;;10.20;91.70;;;;;;5031784;28;20546;-64
2021/09/21 00:31:02;;;;;;;14.57;6.32;;;10.20;91.50;;;;;;5035094;28;20672;-64
2021/09/21 00:33:35;;;;;;;16.20;8.27;;;10.20;91.60;;;;;;5038262;28;20193;-65
2021/09/21 00:36:02;;;;;;;16.88;8.55;;;10.20;91.70;;;;;;5035778;28;20228;-64
2021/09/21 00:38:30;;;;;;;10.38;8.25;;;10.20;92.00;;;;;;5051141;28;20195;-64
2021/09/21 00:40:57;;;;;;;11.13;8.13;;;10.20;91.90;;;;;;5047856;28;20257;-64
2021/09/21 00:43:25;;;;;;;11.63;7.15;;;10.20;92.00;;;;;;5031194;28;20195;-64
2021/09/21 00:45:53;;;;;;;6.82;5.68;;;10.20;92.10;;;;;;5033406;28;20290;-64
2021/09/21 00:48:23;;;;;;;7.28;5.40;;;10.20;92.40;;;;;;5049247;28;20193;-65
2021/09/21 00:50:51;;;;;;;7.28;5.88;;;10.20;92.50;;;;;;5031231;28;20249;-64
2021/09/21 00:53:19;;;;;;;9.38;6.38;;;10.30;92.70;;;;;;5031906;28;20191;-64
2021/09/21 00:55:47;;;;;;;9.00;6.97;;;10.40;92.80;;;;;;5051678;28;20195;-65
2021/09/21 00:58:14;;;;;;;13.02;7.82;;;10.40;92.70;;;;;;5055273;28;20202;-65
2021/09/21 01:00:41;;;;;;;13.98;7.07;;;10.40;92.50;;;;;;5035109;28;20318;-64
2021/09/21 01:03:10;;;;;;;11.18;7.70;;;10.40;92.80;;;;;;5034911;28;20248;-65
2021/09/21 01:05:43;;;;;;;10.52;7.45;;;10.50;92.60;;;;;;5044935;28;20269;-65
2021/09/21 01:08:11;;;;;;;10.30;6.95;;;10.50;92.90;;;;;;5054596;28;20252;-65
2021/09/21 01:10:39;;;;;;;36.58;8.82;;;10.50;92.90;;;;;;5035656;28;20206;-65
2021/09/21 01:13:06;;;;;;;17.98;8.30;;;10.40;93.30;;;;;;5034658;28;20282;-64
2021/09/21 01:15:33;;;;;;;35.97;8.98;;;10.40;93.60;;;;;;5053154;28;20266;-64
2021/09/21 01:18:02;;;;;;;37.35;8.02;;;10.30;94.20;;;;;;5054410;28;20732;-64
2021/09/21 01:20:29;;;;;;;13.02;6.65;;;10.30;94.70;;;;;;5037496;28;20361;-69
2021/09/21 01:23:04;;;;;;;28.65;8.20;;;10.30;94.90;;;;;;5052661;28;20240;-64
2021/09/21 01:25:32;;;;;;;40.47;8.43;;;10.30;95.20;;;;;;5054450;28;20198;-64
2021/09/21 01:28:00;;;;;;;24.10;7.97;;;10.30;95.30;;;;;;5037755;28;20381;-65
2021/09/21 01:30:27;;;;;;;17.40;5.70;;;10.30;95.20;;;;;;5036930;28;20191;-64
2021/09/21 01:32:54;;;;;;;16.67;7.15;;;10.30;95.50;;;;;;5054179;28;20237;-64
2021/09/21 01:35:23;;;;;;;6.68;5.30;;;10.30;95.60;;;;;;5052703;28;20194;-65
2021/09/21 01:37:52;;;;;;;12.27;5.35;;;10.30;95.50;;;;;;5044455;28;20279;-64
2021/09/21 01:40:20;;;;;;;6.30;4.63;;;10.30;95.80;;;;;;5034066;28;20585;-65
2021/09/21 01:42:50;;;;;;;5.13;3.65;;;10.30;95.70;;;;;;5036922;28;20198;-65
2021/09/21 01:45:18;;;;;;;9.07;4.85;;;10.30;95.40;;;;;;5053929;28;20229;-65
2021/09/21 01:47:50;;;;;;;8.10;4.20;;;10.40;95.10;;;;;;5045048;28;20211;-64
2021/09/21 01:50:33;;;;;;;9.18;4.50;;;10.40;94.30;;;;;;5034103;28;20257;-65
2021/09/21 01:53:08;;;;;;;12.23;5.30;;;10.40;94.10;;;;;;5041883;28;20191;-65
2021/09/21 02:01:02;;;;;;;6.22;4.90;;;10.30;93.50;;;;;;5033183;28;20233;-64
2021/09/21 02:03:30;;;;;;;8.32;5.85;;;10.30;93.80;;;;;;5046671;28;20320;-64
2021/09/21 02:05:58;;;;;;;7.65;5.05;;;10.30;93.90;;;;;;5053460;28;20198;-64
2021/09/21 02:08:25;;;;;;;6.88;5.63;;;10.40;93.90;;;;;;5040553;28;20590;-64
2021/09/21 02:10:53;;;;;;;4.90;3.70;;;10.40;93.60;;;;;;5047200;28;20187;-64
2021/09/21 02:13:21;;;;;;;4.60;3.88;;;10.50;93.50;;;;;;5053514;28;20190;-64
2021/09/21 02:15:48;;;;;;;7.00;4.22;;;10.50;93.40;;;;;;5043157;28;20549;-65
2021/09/21 02:18:15;;;;;;;6.30;3.95;;;10.50;93.20;;;;;;5033376;28;20195;-65
2021/09/21 02:20:44;;;;;;;11.88;4.75;;;10.50;93.10;;;;;;5045245;28;20309;-65
2021/09/21 02:23:11;;;;;;;6.88;4.15;;;10.50;93.10;;;;;;5053295;28;20194;-64
2021/09/21 02:25:38;;;;;;;17.05;4.95;;;10.50;93.00;;;;;;5039487;28;20183;-64
2021/09/21 02:28:07;;;;;;;6.65;5.15;;;10.50;92.90;;;;;;5053043;28;20190;-64
2021/09/21 02:30:35;;;;;;;9.07;5.97;;;10.40;92.90;;;;;;5038437;28;20223;-64
2021/09/21 02:33:02;;;;;;;10.30;5.25;;;10.40;93.10;;;;;;5033033;28;20195;-64
2021/09/21 02:35:30;;;;;;;12.00;4.85;;;10.30;93.20;;;;;;5045659;28;20269;-64
2021/09/21 02:37:57;;;;;;;8.82;5.35;;;10.30;93.40;;;;;;5053268;28;20237;-64
2021/09/21 02:40:26;;;;;;;8.15;5.10;;;10.30;93.30;;;;;;5041020;28;20669;-65
2021/09/21 02:42:53;;;;;;;16.02;5.75;;;10.10;93.50;;;;;;5043385;28;20186;-65
2021/09/21 02:45:22;;;;;;;9.00;5.18;;;10.10;93.80;;;;;;5053023;28;20277;-65
2021/09/21 02:47:49;;;;;;;12.93;5.15;;;10.00;94.30;;;;;;5042661;28;20188;-64
2021/09/21 02:50:21;;;;;;;17.00;6.32;;;10.10;94.50;;;;;;5032549;28;20194;-65
2021/09/21 02:52:48;;;;;;;16.42;5.57;;;10.10;94.60;;;;;;5037319;28;20187;-65
2021/09/21 02:55:18;;;;;;;10.77;5.07;;;10.10;94.70;;;;;;5032774;28;20604;-65
2021/09/21 02:57:48;;;;;;;15.50;6.05;;;10.00;94.50;;;;;;5035066;28;20182;-66
2021/09/21 03:00:20;;;;;;;15.23;5.25;;;10.00;94.80;;;;;;5052153;28;20197;-65
2021/09/21 03:02:49;;;;;;;8.35;6.15;;;10.00;94.50;;;;;;5039800;28;20278;-65
2021/09/21 03:05:20;;;;;;;23.60;9.23;;;10.00;94.70;;;;;;5032701;28;20313;-64
2021/09/21 03:07:50;;;;;;;14.27;9.90;;;10.00;95.10;;;;;;5044221;28;20270;-64
2021/09/21 03:10:25;;;;;;;18.40;13.13;;;10.00;95.20;;;;;;5052599;28;20640;-66
2021/09/21 03:13:18;;;;;;;19.25;11.90;;;10.10;95.40;;;;;;5039705;28;20259;-64
2021/09/21 03:18:32;;;;;;;7.95;6.13;;;10.20;95.60;;;;;;5052717;28;20646;-64
2021/09/21 03:20:59;;;;;;;8.40;5.57;;;10.30;95.70;;;;;;5034392;28;20222;-65
2021/09/21 03:23:31;;;;;;;9.57;5.95;;;10.30;95.40;;;;;;5034906;28;20182;-65
2021/09/21 03:26:00;;;;;;;14.05;7.05;;;10.30;94.90;;;;;;5051901;28;20727;-65
2021/09/21 03:28:27;;;;;;;11.32;5.28;;;10.30;95.30;;;;;;5049157;28;20627;-64
2021/09/21 03:30:54;;;;;;;9.23;6.32;;;10.40;95.00;;;;;;5037704;28;20269;-64
2021/09/21 03:33:21;;;;;;;9.45;6.10;;;10.50;94.40;;;;;;5051930;28;20226;-65
2021/09/21 03:35:50;;;;;;;13.18;8.40;;;10.40;94.30;;;;;;5051131;28;20248;-66
2021/09/21 03:38:17;;;;;;;13.73;7.45;;;10.30;94.70;;;;;;5031857;28;20195;-67
2021/09/21 03:40:45;;;;;;;12.52;6.75;;;10.30;94.90;;;;;;5040009;28;20754;-65
2021/09/21 03:43:12;;;;;;;12.27;7.70;;;10.30;94.50;;;;;;5052002;28;20191;-65
2021/09/21 03:45:39;;;;;;;8.98;6.43;;;10.20;94.50;;;;;;5044592;28;20183;-64
2021/09/21 03:48:08;;;;;;;5.07;4.35;;;10.30;94.70;;;;;;5046129;28;20217;-65
2021/09/21 03:50:36;;;;;;;10.05;5.20;;;10.20;94.50;;;;;;5045472;28;20241;-64
2021/09/21 03:53:05;;;;;;;8.07;5.75;;;10.20;94.50;;;;;;5031847;28;20195;-64
2021/09/21 03:55:32;;;;;;;7.20;4.72;;;10.30;94.30;;;;;;5036750;28;20186;-64
2021/09/21 03:57:59;;;;;;;8.45;5.80;;;10.30;94.20;;;;;;5051815;28;20186;-65
2021/09/21 04:00:28;;;;;;;7.80;5.40;;;10.20;94.20;;;;;;5047546;28;20222;-64
2021/09/21 04:02:59;;;;;;;8.20;6.43;;;10.30;94.20;;;;;;5034604;28;20325;-64
2021/09/21 04:05:27;;;;;;;9.60;6.88;;;10.30;94.10;;;;;;5052089;28;20225;-64
2021/09/21 04:07:54;;;;;;;10.50;6.50;;;10.30;93.90;;;;;;5049465;28;20233;-65
2021/09/21 04:10:23;;;;;;;7.55;6.07;;;10.30;93.90;;;;;;5031879;28;20191;-65
2021/09/21 04:12:50;;;;;;;8.40;5.65;;;10.30;94.00;;;;;;5037090;28;20190;-64
2021/09/21 04:15:17;;;;;;;6.10;4.68;;;10.20;94.00;;;;;;5051675;28;20205;-66
2021/09/21 04:17:44;;;;;;;5.88;4.65;;;10.20;94.10;;;;;;5046984;28;20190;-65
2021/09/21 04:20:15;;;;;;;5.95;4.95;;;10.20;94.00;;;;;;5043550;28;20699;-64
2021/09/21 04:22:49;;;;;;;6.43;5.30;;;10.10;94.10;;;;;;5047534;28;20219;-64
2021/09/21 04:25:16;;;;;;;6.90;5.10;;;10.20;94.10;;;;;;5031824;28;20201;-65
2021/09/21 04:27:46;;;;;;;6.20;4.65;;;10.20;94.00;;;;;;5034959;28;20178;-64
2021/09/21 04:30:18;;;;;;;6.65;5.00;;;10.20;94.00;;;;;;5051941;28;20195;-64
2021/09/21 04:32:45;;;;;;;6.63;5.10;;;10.20;93.70;;;;;;5051702;28;20183;-66
2021/09/21 04:35:12;;;;;;;6.82;5.78;;;10.30;93.70;;;;;;5037616;28;20179;-65
2021/09/21 04:37:40;;;;;;;8.10;6.63;;;10.30;93.60;;;;;;5055465;28;20618;-66
2021/09/21 04:40:08;;;;;;;6.13;4.63;;;10.40;93.70;;;;;;5054375;28;20190;-65
2021/09/21 04:42:35;;;;;;;6.25;4.80;;;10.40;93.60;;;;;;5035612;28;20223;-65
2021/09/21 04:45:05;;;;;;;7.28;4.80;;;10.50;93.50;;;;;;5039329;28;20590;-65
2021/09/21 04:47:36;;;;;;;7.50;5.00;;;10.50;93.60;;;;;;5035119;28;20250;-65
2021/09/21 04:50:05;;;;;;;5.93;4.70;;;10.50;93.60;;;;;;5039285;28;20198;-64
2021/09/21 04:52:35;;;;;;;7.25;5.35;;;10.50;93.50;;;;;;5043334;28;20530;-65
2021/09/21 04:55:02;;;;;;;6.50;4.68;;;10.60;93.60;;;;;;5052769;28;20187;-64
2021/09/21 04:57:30;;;;;;;5.32;4.55;;;10.60;93.50;;;;;;5055182;28;20281;-64
2021/09/21 05:00:00;;;;;;;7.15;5.30;;;10.70;93.60;;;;;;5054423;28;20190;-66
2021/09/21 05:02:29;;;;;;;6.57;4.75;;;10.70;93.60;;;;;;5054880;28;20260;-64
2021/09/21 05:04:56;;;;;;;5.93;3.80;;;10.70;93.50;;;;;;5037727;28;20704;-65
2021/09/21 05:07:23;;;;;;;5.72;4.15;;;10.80;93.50;;;;;;5036226;28;20266;-65
2021/09/21 05:09:50;;;;;;;6.20;4.47;;;10.80;93.50;;;;;;5054588;28;20193;-64
2021/09/21 05:12:18;;;;;;;6.05;4.82;;;10.80;93.10;;;;;;5051753;28;20223;-66
2021/09/21 05:14:45;;;;;;;6.03;4.63;;;10.80;93.10;;;;;;5035389;28;20300;-64
2021/09/21 05:17:12;;;;;;;7.80;5.95;;;10.80;93.30;;;;;;5041848;28;20556;-64
2021/09/21 05:19:41;;;;;;;11.13;6.80;;;10.80;93.30;;;;;;5036192;28;20285;-65
2021/09/21 05:22:08;;;;;;;9.23;6.10;;;10.80;93.30;;;;;;5040074;28;20715;-64
2021/09/21 05:24:36;;;;;;;10.65;7.18;;;10.90;93.10;;;;;;5034377;28;20270;-64
2021/09/21 05:27:04;;;;;;;11.90;7.50;;;10.80;93.20;;;;;;5034239;28;20237;-65
2021/09/21 05:29:36;;;;;;;11.48;7.20;;;10.80;93.50;;;;;;5034132;28;20201;-65
2021/09/21 05:32:03;;;;;;;11.30;6.65;;;10.80;93.90;;;;;;5034334;28;20209;-64
2021/09/21 05:34:31;;;;;;;14.15;7.63;;;10.80;93.90;;;;;;5040091;28;20226;-65
2021/09/21 05:37:00;;;;;;;15.15;8.57;;;10.80;93.90;;;;;;5051056;28;20221;-66
2021/09/21 05:39:27;;;;;;;12.20;7.63;;;10.80;93.90;;;;;;5051716;28;20190;-66
2021/09/21 05:41:54;;;;;;;13.45;8.05;;;10.80;94.00;;;;;;5051567;28;20265;-64
2021/09/21 05:44:24;;;;;;;11.48;8.18;;;10.80;94.10;;;;;;5040621;28;20254;-65
2021/09/21 05:46:57;;;;;;;10.77;7.35;;;10.80;94.00;;;;;;5047326;28;20248;-65
2021/09/21 05:49:24;;;;;;;11.20;7.68;;;10.80;94.10;;;;;;5051740;28;20635;-65
2021/09/21 05:51:53;;;;;;;9.30;7.63;;;10.90;94.20;;;;;;5051358;28;20208;-65
2021/09/21 05:54:22;;;;;;;13.40;10.40;;;10.90;94.00;;;;;;5050840;28;20273;-65
2021/09/21 05:56:49;;;;;;;10.80;7.68;;;10.90;93.90;;;;;;5051392;28;20676;-65
2021/09/21 05:59:16;;;;;;;13.75;8.10;;;10.90;93.20;;;;;;5051707;28;20226;-66
2021/09/21 06:01:44;;;;;;;9.02;6.65;;;10.80;93.20;;;;;;5051379;28;20222;-66
2021/09/21 06:04:12;;;;;;;7.25;5.10;;;10.80;93.50;;;;;;5051212;28;20258;-65
2021/09/21 06:06:40;;;;;;;7.47;6.45;;;10.70;94.00;;;;;;5051174;28;20203;-65
2021/09/21 06:09:07;;;;;;;8.63;6.43;;;10.70;94.10;;;;;;5051179;28;20240;-64
2021/09/21 06:11:39;;;;;;;9.82;5.85;;;10.80;94.10;;;;;;5041298;28;20522;-65
2021/09/21 06:14:07;;;;;;;9.23;6.75;;;10.90;94.10;;;;;;5033505;28;20282;-65
2021/09/21 06:16:34;;;;;;;7.30;5.60;;;10.90;94.30;;;;;;5033946;28;20632;-64
2021/09/21 06:19:01;;;;;;;7.20;5.30;;;11.00;94.10;;;;;;5035601;28;20215;-65
2021/09/21 06:21:28;;;;;;;6.43;4.95;;;11.00;94.20;;;;;;5047491;28;20214;-65
2021/09/21 06:23:56;;;;;;;8.25;5.80;;;11.10;94.10;;;;;;5050976;28;20280;-66
2021/09/21 06:26:23;;;;;;;5.95;4.85;;;11.20;94.30;;;;;;5046434;28;20568;-65
2021/09/21 06:28:52;;;;;;;8.25;5.53;;;11.20;94.00;;;;;;5032765;28;20191;-66
2021/09/21 06:31:21;;;;;;;10.05;6.43;;;11.30;93.50;;;;;;5050788;28;20259;-64
2021/09/21 06:33:48;;;;;;;6.82;6.13;;;11.30;93.50;;;;;;5047112;28;20229;-65
2021/09/21 06:36:16;;;;;;;8.80;6.70;;;11.40;93.40;;;;;;5032781;28;20198;-66
2021/09/21 06:38:46;;;;;;;8.18;6.32;;;11.40;93.80;;;;;;5032792;28;20692;-65
2021/09/21 06:41:13;;;;;;;7.75;5.95;;;11.50;93.70;;;;;;5033131;28;20195;-64
2021/09/21 06:43:40;;;;;;;8.13;6.40;;;11.50;93.60;;;;;;5042432;28;20236;-64
2021/09/21 06:46:11;;;;;;;7.15;5.80;;;11.60;93.50;;;;;;5049489;28;20194;-65
2021/09/21 06:48:40;;;;;;;8.73;6.20;;;11.60;93.30;;;;;;5051005;28;20611;-65
2021/09/21 06:51:07;;;;;;;7.55;6.13;;;11.60;93.50;;;;;;5038981;28;20635;-64
2021/09/21 06:53:34;;;;;;;7.43;5.55;;;11.60;93.50;;;;;;5032682;28;20191;-66
2021/09/21 06:56:02;;;;;;;6.20;5.30;;;11.70;93.60;;;;;;5046542;28;20700;-66
2021/09/21 06:58:29;;;;;;;5.65;4.80;;;11.70;93.40;;;;;;5043725;28;20290;-65
2021/09/21 07:00:56;;;;;;;7.70;6.30;;;11.70;93.30;;;;;;5031437;28;20569;-65
2021/09/21 07:03:25;;;;;;;7.13;5.85;;;11.70;93.20;;;;;;5032486;28;20225;-65
2021/09/21 07:05:58;;;;;;;9.60;6.93;;;11.80;93.50;;;;;;5039109;28;20282;-65
2021/09/21 07:08:26;;;;;;;8.80;6.30;;;11.80;93.40;;;;;;5040986;28;20190;-65
2021/09/21 07:10:53;;;;;;;10.90;8.00;;;11.80;93.40;;;;;;5032645;28;20277;-65
2021/09/21 07:13:20;;;;;;;9.02;6.50;;;11.90;93.50;;;;;;5033265;28;20277;-65
2021/09/21 07:15:47;;;;;;;8.80;5.90;;;11.90;93.20;;;;;;5033083;28;20197;-65
2021/09/21 07:18:14;;;;;;;8.40;4.70;;;11.80;93.10;;;;;;5033221;28;20286;-65
2021/09/21 07:20:42;;;;;;;6.78;5.40;;;11.80;93.20;;;;;;5032598;28;20221;-65
2021/09/21 07:23:09;;;;;;;6.75;5.57;;;11.80;93.50;;;;;;5033131;28;20696;-64
2021/09/21 07:25:41;;;;;;;6.78;5.85;;;11.90;93.60;;;;;;5033009;28;20194;-65
2021/09/21 07:28:09;;;;;;;7.35;6.25;;;11.90;93.60;;;;;;5032951;28;20603;-64
2021/09/21 07:30:37;;;;;;;8.45;6.68;;;11.90;93.60;;;;;;5032816;28;20602;-65
2021/09/21 07:33:04;;;;;;;7.78;6.28;;;11.90;93.90;;;;;;5033051;28;20285;-65
2021/09/21 07:35:31;;;;;;;8.68;6.70;;;11.90;94.20;;;;;;5032639;28;20564;-65
2021/09/21 07:38:00;;;;;;;8.88;6.35;;;12.00;93.80;;;;;;5032711;28;20282;-64
2021/09/21 07:40:30;;;;;;;8.57;7.60;;;12.00;93.60;;;;;;5032735;28;20278;-64
2021/09/21 07:42:58;;;;;;;8.00;6.32;;;12.10;93.80;;;;;;5032484;28;20313;-64
2021/09/21 07:45:25;;;;;;;8.18;6.70;;;12.20;94.00;;;;;;5032793;28;20193;-64
2021/09/21 07:47:52;;;;;;;6.93;5.40;;;12.30;93.90;;;;;;5032399;28;20252;-64
2021/09/21 07:50:19;;;;;;;9.15;6.43;;;12.30;93.60;;;;;;5032657;28;20577;-64
2021/09/21 07:52:46;;;;;;;8.95;7.20;;;12.40;93.60;;;;;;5032218;28;20187;-68
2021/09/21 07:55:15;;;;;;;8.13;6.22;;;12.50;93.40;;;;;;5032527;28;20195;-65
2021/09/21 07:57:45;;;;;;;9.88;7.00;;;12.60;93.50;;;;;;5032332;28;20278;-64
2021/09/21 08:00:15;;;;;;;7.33;5.67;;;12.70;93.30;;;;;;5032346;28;20273;-64
2021/09/21 08:02:47;;;;;;;9.98;7.28;;;12.80;93.30;;;;;;5032000;28;20486;-64
2021/09/21 08:05:14;;;;;;;9.13;7.37;;;13.00;93.10;;;;;;5033154;28;20278;-64
2021/09/21 08:07:43;;;;;;;12.10;8.67;;;13.20;93.10;;;;;;5038632;28;20472;-64
2021/09/21 08:10:12;;;;;;;13.27;8.70;;;13.30;92.60;;;;;;5038967;28;20555;-64
2021/09/21 08:12:41;;;;;;;11.00;7.67;;;13.50;92.20;;;;;;5038561;28;20529;-64
2021/09/21 08:15:09;;;;;;;10.27;7.50;;;13.60;91.60;;;;;;5038781;28;20441;-65
2021/09/21 08:17:37;;;;;;;9.77;7.30;;;13.60;91.50;;;;;;5039215;28;20516;-65
2021/09/21 08:20:11;;;;;;;10.10;7.20;;;13.60;91.10;;;;;;5039000;28;21045;-65
2021/09/21 08:22:39;;;;;;;8.70;6.57;;;13.70;91.20;;;;;;5039092;28;20535;-65
2021/09/21 08:25:08;;;;;;;9.80;7.20;;;13.80;91.40;;;;;;5039110;28;20434;-65
2021/09/21 08:27:40;;;;;;;7.83;6.20;;;13.90;91.40;;;;;;5038985;28;20539;-65
2021/09/21 08:30:09;;;;;;;9.30;6.90;;;14.00;91.60;;;;;;5039124;28;20448;-65
2021/09/21 08:32:36;;;;;;;8.40;6.73;;;14.20;91.80;;;;;;5038921;28;20469;-65
2021/09/21 08:35:11;;;;;;;8.70;6.43;;;14.20;91.60;;;;;;5038831;28;20492;-65
2021/09/21 08:37:38;;;;;;;7.57;6.17;;;14.30;91.60;;;;;;5039292;28;20520;-65
2021/09/21 08:40:07;;;;;;;8.80;6.63;;;14.40;91.70;;;;;;5038892;28;20524;-65
2021/09/21 08:42:39;;;;;;;9.70;6.30;;;14.50;91.80;;;;;;5038510;28;20521;-65
2021/09/21 08:45:08;;;;;;;7.93;6.03;;;14.50;91.80;;;;;;5038757;28;20532;-66
2021/09/21 08:47:41;;;;;;;9.27;6.40;;;14.70;92.30;;;;;;5039018;28;20444;-65
2021/09/21 08:50:10;;;;;;;7.37;6.30;;;14.70;91.00;;;;;;5039006;28;20939;-65
2021/09/21 08:52:40;;;;;;;11.50;7.67;;;14.90;91.10;;;;;;5038886;28;20524;-65
2021/09/21 08:55:09;;;;;;;7.80;5.37;;;15.00;91.50;;;;;;5038776;28;20492;-65
2021/09/21 08:57:37;;;;;;;7.97;6.10;;;15.20;91.50;;;;;;5038694;28;20613;-66
2021/09/21 09:00:05;;;;;;;8.10;6.53;;;15.40;91.20;;;;;;5038849;28;21019;-65
2021/09/21 09:02:34;;;;;;;9.93;5.93;;;15.60;90.90;;;;;;5038700;28;20565;-66
2021/09/21 09:05:04;;;;;;;8.23;6.37;;;15.80;90.80;;;;;;5038596;28;20796;-65
2021/09/21 09:07:36;;;;;;;6.73;5.67;;;15.90;90.40;;;;;;5038546;28;20507;-65
2021/09/21 09:10:06;;;;;;;6.63;5.67;;;16.10;89.70;;;;;;5038341;28;20917;-65
2021/09/21 09:12:35;;;;;;;6.03;4.83;;;16.20;87.20;;;;;;5038412;28;20552;-65
2021/09/21 09:15:10;;;;;;;6.80;5.77;;;16.40;88.00;;;;;;5038533;28;20857;-65
2021/09/21 09:17:39;;;;;;;6.53;4.97;;;16.60;88.30;;;;;;5037106;28;20441;-66
2021/09/21 09:20:08;;;;;;;11.37;5.73;;;16.90;87.20;;;;;;5035247;28;20551;-66
2021/09/21 09:22:35;;;;;;;6.27;5.33;;;17.50;87.10;;;;;;5035354;28;20574;-65
2021/09/21 09:25:05;;;;;;;7.03;5.60;;;18.00;85.20;;;;;;5035089;28;20469;-66
2021/09/21 09:27:44;;;;;;;7.10;5.20;;;18.40;82.80;;;;;;5035296;28;20445;-66
2021/09/21 09:30:16;;;;;;;6.30;5.70;;;18.80;80.10;;;;;;5035466;28;20592;-66
2021/09/21 09:32:49;;;;;;;6.70;5.67;;;19.00;77.90;;;;;;5035308;28;20784;-68
2021/09/21 09:35:24;;;;;;;8.00;5.60;;;19.20;74.70;;;;;;5034788;28;20429;-66
2021/09/21 09:37:58;;;;;;;7.97;6.43;;;19.10;71.20;;;;;;5035224;28;20979;-65
2021/09/21 09:40:25;;;;;;;8.37;6.00;;;19.10;72.30;;;;;;5035361;28;20520;-66
2021/09/21 09:42:52;;;;;;;8.73;7.07;;;19.20;73.70;;;;;;5034966;28;20485;-66
2021/09/21 09:45:29;;;;;;;10.50;7.40;;;19.20;72.50;;;;;;5034558;28;20445;-66
2021/09/21 09:47:59;;;;;;;11.10;7.57;;;19.20;72.50;;;;;;5035226;28;20924;-65
2021/09/21 09:50:29;;;;;;;8.97;7.23;;;19.30;70.30;;;;;;5034776;28;20449;-65
2021/09/21 09:53:09;;;;;;;10.87;7.97;;;19.40;71.80;;;;;;5034510;28;20487;-65
2021/09/21 09:55:41;;;;;;;9.93;7.47;;;19.50;71.50;;;;;;5035016;28;20520;-65
2021/09/21 09:58:09;;;;;;;11.00;9.43;;;19.70;71.00;;;;;;5034252;28;20536;-65
2021/09/21 10:00:37;;;;;;;10.37;9.00;;;20.00;71.60;;;;;;5034710;28;20524;-65
2021/09/21 10:03:07;;;;;;;10.23;8.00;;;20.50;69.40;;;;;;5034380;28;20840;-65
2021/09/21 10:05:41;;;;;;;9.30;7.83;;;21.00;68.90;;;;;;5034063;28;20477;-66
2021/09/21 10:08:10;;;;;;;12.90;7.67;;;21.40;66.70;;;;;;5034685;28;20442;-65
2021/09/21 10:10:40;;;;;;;9.90;8.90;;;21.90;64.20;;;;;;5034626;28;20437;-66
2021/09/21 10:13:10;;;;;;;11.40;8.33;;;22.90;65.00;;;;;;5034237;28;20454;-66
2021/09/21 10:15:40;;;;;;;8.93;7.50;;;24.80;64.00;;;;;;5034122;28;20437;-66
2021/09/21 10:18:16;;;;;;;9.83;8.73;;;26.20;57.00;;;;;;5034419;28;21134;-66
2021/09/21 10:20:44;;;;;;;10.20;8.03;;;27.20;51.70;;;;;;5017213;28;20786;-66
2021/09/21 10:23:14;;;;;;;9.20;8.30;;;28.20;49.60;;;;;;5014522;28;20580;-66
2021/09/21 10:25:43;;;;;;;11.43;9.03;;;28.70;45.20;;;;;;5014407;28;20522;-66
2021/09/21 10:28:17;;;;;;;11.07;8.90;;;28.90;41.70;;;;;;5013960;28;20485;-66
2021/09/21 10:30:56;;;;;;;9.20;8.30;;;28.90;42.90;;;;;;5013724;28;20427;-67
2021/09/21 10:33:26;;;;;;;10.13;9.00;;;29.30;42.10;;;;;;5014715;28;20437;-66
2021/09/21 10:35:53;;;;;;;10.30;9.20;;;30.30;41.80;;;;;;5014149;28;20546;-66
2021/09/21 10:38:20;;;;;;;10.67;9.57;;;32.30;40.30;;;;;;5014206;28;20436;-66
2021/09/21 10:40:50;;;;;;;8.37;7.57;;;35.30;34.20;;;;;;5014502;28;20449;-66
2021/09/21 10:43:25;;;;;;;8.63;7.80;;;38.50;29.90;;;;;;5013995;28;20521;-66
2021/09/21 10:45:53;;;;;;;8.13;7.33;;;41.10;24.70;;;;;;5013807;28;20484;-67
2021/09/21 10:48:22;;;;;;;7.50;6.73;;;43.10;22.40;;;;;;5013952;28;20446;-67
2021/09/21 10:50:59;;;;;;;6.63;6.03;;;45.00;19.70;;;;;;5013904;28;20518;-67
2021/09/21 10:53:27;;;;;;;8.70;7.80;;;46.10;17.10;;;;;;5013924;28;20509;-66
2021/09/21 10:56:01;;;;;;;6.97;6.27;;;47.10;16.40;;;;;;5013474;28;20431;-67
2021/09/21 10:58:29;;;;;;;6.03;5.43;;;47.90;15.60;;;;;;5013575;28;20979;-65
2021/09/21 11:00:56;;;;;;;6.67;6.07;;;48.00;15.70;;;;;;5013667;28;20935;-66
2021/09/21 11:03:24;;;;;;;6.13;5.53;;;48.60;14.40;;;;;;5013750;28;20872;-65
2021/09/21 11:05:52;;;;;;;7.23;6.53;;;46.90;13.40;;;;;;5013219;28;20819;-66
2021/09/21 11:08:26;;;;;;;7.23;6.60;;;43.90;13.80;;;;;;5033014;28;20520;-65
2021/09/21 11:11:01;;;;;;;6.90;6.30;;;40.90;15.10;;;;;;5032838;28;20517;-64
2021/09/21 11:13:31;;;;;;;6.50;5.90;;;38.00;17.20;;;;;;5033207;28;20469;-64
2021/09/21 11:16:00;;;;;;;6.70;6.10;;;35.70;19.40;;;;;;5032412;28;21012;-66
2021/09/21 11:18:29;;;;;;;7.10;5.40;;;33.60;21.00;;;;;;5033010;28;20520;-64
2021/09/21 11:20:58;;;;;;;8.80;6.33;;;32.00;22.50;;;;;;5032810;28;20466;-66
2021/09/21 11:23:30;;;;;;;9.60;8.60;;;30.60;24.30;;;;;;5033033;28;20572;-66
2021/09/21 11:25:59;;;;;;;8.10;7.30;;;29.60;27.40;;;;;;5032397;28;20438;-66
2021/09/21 11:28:26;;;;;;;8.43;7.60;;;29.60;29.50;;;;;;5030233;28;20532;-66
2021/09/21 11:30:56;;;;;;;8.37;7.57;;;31.20;28.40;;;;;;5032127;28;20447;-66
2021/09/21 11:33:32;;;;;;;8.73;7.60;;;32.60;26.80;;;;;;5032158;28;20525;-66
2021/09/21 11:36:01;;;;;;;7.17;6.47;;;33.70;25.60;;;;;;5026397;28;20468;-66
2021/09/21 11:38:36;;;;;;;7.07;6.37;;;34.60;24.50;;;;;;5031865;28;20539;-66
2021/09/21 11:41:04;;;;;;;6.07;5.07;;;36.90;21.50;;;;;;5030541;28;20476;-66
2021/09/21 11:43:31;;;;;;;5.40;4.20;;;39.10;21.80;;;;;;5031986;28;20560;-66
2021/09/21 11:45:59;;;;;;;5.97;5.07;;;41.00;19.00;;;;;;5031515;28;20974;-65
2021/09/21 11:48:26;;;;;;;6.20;5.53;;;42.60;17.30;;;;;;5032085;28;20442;-66
2021/09/21 11:50:56;;;;;;;6.10;5.57;;;41.40;14.90;;;;;;5031831;28;20520;-64
2021/09/21 11:53:29;;;;;;;4.97;4.50;;;39.70;16.00;;;;;;5031459;28;20442;-64
2021/09/21 11:56:02;;;;;;;5.20;4.70;;;37.60;17.00;;;;;;5032479;28;20443;-64
2021/09/21 11:58:33;;;;;;;6.03;5.10;;;35.70;18.10;;;;;;5032127;28;20743;-66
2021/09/21 12:01:02;;;;;;;4.63;4.10;;;34.00;19.50;;;;;;5032193;28;20469;-66
2021/09/21 12:03:29;;;;;;;4.57;4.17;;;32.60;20.70;;;;;;5032050;28;20652;-67
2021/09/21 12:05:57;;;;;;;6.00;5.40;;;31.40;21.90;;;;;;5032461;28;20496;-66
2021/09/21 12:08:27;;;;;;;6.43;5.77;;;30.50;23.20;;;;;;5032311;28;20444;-66
2021/09/21 12:11:00;;;;;;;8.80;6.37;;;29.90;23.80;;;;;;5032791;28;20473;-66
2021/09/21 12:13:29;;;;;;;6.53;5.43;;;29.30;24.60;;;;;;5032424;28;20539;-66
2021/09/21 12:16:05;;;;;;;6.63;5.83;;;28.70;25.20;;;;;;5032206;28;21002;-65
2021/09/21 12:18:36;;;;;;;7.20;6.50;;;28.10;26.30;;;;;;5032475;28;20524;-65
2021/09/21 12:21:05;;;;;;;7.80;6.33;;;27.60;27.30;;;;;;5043590;28;20577;-65
2021/09/21 12:23:34;;;;;;;5.80;5.13;;;27.10;27.90;;;;;;5041344;28;20492;-65
2021/09/21 12:26:04;;;;;;;5.90;5.20;;;27.00;28.90;;;;;;5040295;28;20529;-66
2021/09/21 12:28:35;;;;;;;4.97;4.43;;;27.50;29.70;;;;;;5041401;28;20530;-65
2021/09/21 12:31:10;;;;;;;6.30;3.77;;;29.80;30.90;;;;;;5041936;28;21141;-66
2021/09/21 12:33:39;;;;;;;5.70;4.53;;;32.60;26.40;;;;;;5041494;28;20554;-66
2021/09/21 12:36:07;;;;;;;4.40;4.00;;;34.80;24.00;;;;;;5041244;28;20455;-66
2021/09/21 12:38:33;;;;;;;5.23;4.20;;;35.20;21.00;;;;;;5040090;28;20464;-66
2021/09/21 12:41:03;;;;;;;5.73;4.43;;;34.00;20.50;;;;;;5042089;28;20437;-66
2021/09/21 12:43:40;;;;;;;5.83;4.00;;;32.90;20.80;;;;;;5039974;28;20527;-65
2021/09/21 12:46:08;;;;;;;3.80;3.40;;;32.20;22.70;;;;;;5041299;28;20448;-65
2021/09/21 12:48:37;;;;;;;4.40;4.00;;;32.00;22.90;;;;;;5040026;28;20495;-66
2021/09/21 12:51:07;;;;;;;4.93;3.80;;;33.60;22.80;;;;;;5041482;28;20444;-66
2021/09/21 12:53:34;;;;;;;4.33;3.13;;;35.20;22.10;;;;;;5043708;28;20452;-67
2021/09/21 12:56:03;;;;;;;4.77;3.90;;;36.30;20.80;;;;;;5045519;28;20539;-66
2021/09/21 12:58:35;;;;;;;5.00;4.50;;;36.60;19.70;;;;;;5042829;28;20788;-64
2021/09/21 13:01:04;;;;;;;4.07;3.53;;;36.30;19.00;;;;;;5043283;28;20445;-66